createdAt,value
2023-04-17T00:00:32.727Z,5.13
2023-04-17T00:03:34.795Z,4.38
2023-04-17T00:06:38.406Z,3.40
2023-04-17T00:09:40.830Z,4.07
2023-04-17T00:12:43.038Z,3.47
2023-04-17T00:15:45.235Z,3.10
2023-04-17T00:18:47.734Z,4.55
2023-04-17T00:21:50.824Z,4.53
2023-04-17T00:24:52.705Z,4.10
2023-04-17T00:27:54.590Z,3.00
2023-04-17T00:30:59.570Z,4.07
2023-04-17T00:34:01.738Z,3.70
2023-04-17T00:37:05.030Z,4.28
2023-04-17T00:40:08.053Z,3.90
2023-04-17T00:43:09.799Z,3.40
2023-04-17T00:46:13.148Z,5.63
2023-04-17T00:49:15.392Z,3.95
2023-04-17T00:52:30.220Z,3.72
2023-04-17T00:55:34.187Z,4.05
2023-04-17T00:58:38.238Z,4.50
2023-04-17T01:01:40.255Z,3.92
2023-04-17T01:04:42.347Z,4.60
2023-04-17T01:07:48.226Z,5.07
2023-04-17T01:10:50.467Z,4.78
2023-04-17T01:13:53.750Z,4.80
2023-04-17T01:16:55.904Z,4.15
2023-04-17T01:19:59.232Z,4.75
2023-04-17T01:23:03.296Z,5.07
2023-04-17T01:26:09.195Z,3.92
2023-04-17T01:29:11.194Z,3.38
2023-04-17T01:32:14.817Z,3.92
2023-04-17T01:35:16.740Z,3.90
2023-04-17T01:38:20.624Z,5.38
2023-04-17T01:41:23.905Z,6.03
2023-04-17T01:44:27.820Z,4.03
2023-04-17T01:47:30.215Z,6.53
2023-04-17T01:50:32.073Z,4.05
2023-04-17T01:53:40.720Z,4.43
2023-04-17T01:56:44.072Z,4.07
2023-04-17T01:59:45.857Z,5.90
2023-04-17T02:02:48.533Z,4.68
2023-04-17T02:05:51.727Z,5.13
2023-04-17T02:08:53.563Z,5.25
2023-04-17T02:11:56.823Z,5.70
2023-04-17T02:14:59.785Z,8.30
2023-04-17T02:18:02.366Z,6.32
2023-04-17T02:21:04.479Z,5.85
2023-04-17T02:24:07.009Z,6.22
2023-04-17T02:27:10.353Z,6.43
2023-04-17T02:30:12.889Z,5.90
2023-04-17T02:33:14.667Z,4.72
2023-04-17T02:36:19.034Z,6.32
2023-04-17T02:39:20.733Z,6.25
2023-04-17T02:42:24.679Z,6.43
2023-04-17T02:45:27.627Z,5.50
2023-04-17T02:48:32.328Z,6.05
2023-04-17T02:51:35.005Z,5.65
2023-04-17T02:54:37.705Z,6.85
2023-04-17T02:57:40.864Z,7.13
2023-04-17T03:00:44.747Z,6.35
2023-04-17T03:03:46.678Z,6.93
2023-04-17T03:06:48.657Z,6.57
2023-04-17T03:09:50.672Z,6.88
2023-04-17T03:12:56.308Z,7.18
2023-04-17T03:15:59.188Z,7.15
2023-04-17T03:19:00.981Z,7.38
2023-04-17T03:22:03.712Z,7.15
2023-04-17T03:25:07.206Z,7.78
2023-04-17T03:28:10.306Z,7.35
2023-04-17T03:31:12.369Z,7.20
2023-04-17T03:34:14.225Z,7.15
2023-04-17T03:37:16.289Z,6.90
2023-04-17T03:40:20.649Z,6.43
2023-04-17T03:43:24.042Z,6.85
2023-04-17T03:46:25.821Z,6.43
2023-04-17T03:49:28.166Z,6.63
2023-04-17T03:52:30.467Z,6.80
2023-04-17T03:55:33.474Z,7.47
2023-04-17T03:58:38.915Z,7.25
2023-04-17T04:01:45.438Z,6.82
2023-04-17T04:04:48.891Z,6.18
2023-04-17T04:07:53.820Z,7.65
2023-04-17T04:10:55.832Z,7.53
2023-04-17T04:14:00.515Z,7.35
2023-04-17T04:17:03.193Z,6.90
2023-04-17T04:20:06.456Z,6.68
2023-04-17T04:23:08.229Z,6.50
2023-04-17T04:26:10.379Z,6.82
2023-04-17T04:29:13.830Z,6.22
2023-04-17T04:32:16.818Z,7.00
2023-04-17T04:35:18.990Z,6.93
2023-04-17T04:38:21.899Z,6.25
2023-04-17T04:41:24.270Z,6.53
2023-04-17T04:44:27.580Z,9.88
2023-04-17T04:47:30.240Z,7.85
2023-04-17T04:50:34.264Z,15.50
2023-04-17T04:53:36.362Z,7.90
2023-04-17T04:56:39.662Z,6.70
2023-04-17T04:59:43.178Z,6.70
2023-04-17T05:02:45.807Z,7.00
2023-04-17T05:05:50.528Z,8.43
2023-04-17T05:08:53.081Z,7.32
2023-04-17T05:11:58.482Z,8.13
2023-04-17T05:15:02.314Z,8.27
2023-04-17T05:18:05.851Z,8.63
2023-04-17T05:21:07.674Z,9.00
2023-04-17T05:24:09.429Z,10.52
2023-04-17T05:27:11.901Z,10.77
2023-04-17T05:30:15.740Z,11.15
2023-04-17T05:33:17.946Z,9.27
2023-04-17T05:36:19.785Z,9.13
2023-04-17T05:39:21.515Z,8.13
2023-04-17T05:42:23.632Z,8.63
2023-04-17T05:45:28.228Z,9.88
2023-04-17T05:48:30.317Z,10.88
2023-04-17T05:51:33.624Z,9.98
2023-04-17T05:54:38.091Z,9.18
2023-04-17T05:57:40.110Z,8.67
2023-04-17T06:00:44.670Z,8.57
2023-04-17T06:03:46.875Z,7.20
2023-04-17T06:06:48.869Z,9.35
2023-04-17T06:09:50.675Z,9.00
2023-04-17T06:12:52.592Z,10.88
2023-04-17T06:15:55.760Z,12.38
2023-04-17T06:18:57.592Z,10.90
2023-04-17T06:21:59.737Z,9.80
2023-04-17T06:25:01.830Z,11.93
2023-04-17T06:28:03.845Z,10.23
2023-04-17T06:31:07.377Z,10.93
2023-04-17T06:34:09.219Z,10.38
2023-04-17T06:37:11.446Z,11.55
2023-04-17T06:40:13.638Z,11.48
2023-04-17T06:43:16.397Z,10.73
2023-04-17T06:46:20.346Z,11.70
2023-04-17T06:49:22.281Z,37.40
2023-04-17T06:52:24.610Z,15.75
2023-04-17T06:55:27.272Z,14.80
2023-04-17T06:58:30.529Z,16.52
2023-04-17T07:01:34.180Z,20.70
2023-04-17T07:04:36.370Z,15.05
2023-04-17T07:07:38.257Z,15.73
2023-04-17T07:10:40.370Z,16.35
2023-04-17T07:13:42.143Z,16.85
2023-04-17T07:16:46.162Z,19.05
2023-04-17T07:19:48.131Z,17.50
2023-04-17T07:22:50.414Z,18.80
2023-04-17T07:25:53.983Z,17.90
2023-04-17T07:28:55.824Z,20.05
2023-04-17T07:31:59.931Z,18.85
2023-04-17T07:35:01.976Z,19.13
2023-04-17T07:38:03.840Z,22.27
2023-04-17T07:41:05.843Z,21.55
2023-04-17T07:44:10.726Z,19.23
2023-04-17T07:47:14.305Z,20.25
2023-04-17T07:50:16.535Z,19.92
2023-04-17T07:53:18.548Z,23.65
2023-04-17T07:56:20.573Z,25.40
2023-04-17T07:59:22.335Z,21.50
2023-04-17T08:02:26.286Z,23.48
2023-04-17T08:05:28.823Z,22.45
2023-04-17T08:08:32.121Z,24.45
2023-04-17T08:11:42.768Z,20.83
2023-04-17T08:14:47.877Z,16.67
2023-04-17T08:17:51.834Z,17.15
2023-04-17T08:20:53.698Z,17.58
2023-04-17T08:23:55.499Z,15.88
2023-04-17T08:26:57.377Z,13.40
2023-04-17T08:29:59.331Z,16.10
2023-04-17T08:33:04.087Z,15.13
2023-04-17T08:36:08.433Z,13.02
2023-04-17T08:39:10.873Z,13.50
2023-04-17T08:42:18.228Z,15.88
2023-04-17T08:45:22.717Z,14.18
2023-04-17T08:48:26.277Z,14.35
2023-04-17T08:51:28.668Z,18.20
2023-04-17T08:54:30.412Z,18.63
2023-04-17T08:57:32.503Z,20.40
2023-04-17T09:00:36.245Z,21.83
2023-04-17T09:03:43.721Z,21.45
2023-04-17T09:06:54.620Z,19.52
2023-04-17T09:09:57.173Z,25.13
2023-04-17T09:13:00.127Z,21.25
2023-04-17T09:16:08.429Z,23.92
2023-04-17T09:19:12.776Z,18.43
2023-04-17T09:22:18.667Z,18.42
2023-04-17T09:25:21.175Z,17.50
2023-04-17T09:28:25.527Z,18.10
2023-04-17T09:31:28.841Z,19.10
2023-04-17T09:34:40.687Z,18.90
2023-04-17T09:37:50.766Z,18.83
2023-04-17T09:40:53.791Z,20.15
2023-04-17T09:43:57.845Z,16.75
2023-04-17T09:47:00.858Z,17.35
2023-04-17T09:50:05.359Z,16.63
2023-04-17T09:53:08.544Z,17.10
2023-04-17T09:56:12.928Z,17.73
2023-04-17T09:59:16.227Z,19.30
2023-04-17T10:02:20.076Z,15.63
2023-04-17T10:05:25.774Z,17.48
2023-04-17T10:08:28.479Z,15.07
2023-04-17T10:11:35.337Z,13.93
2023-04-17T10:17:42.504Z,16.02
2023-04-17T10:20:47.437Z,15.95
2023-04-17T10:23:50.108Z,15.00
2023-04-17T10:26:52.981Z,14.43
2023-04-17T10:29:55.866Z,12.88
2023-04-17T10:33:20.544Z,15.15
2023-04-17T10:36:50.499Z,13.32
2023-04-17T10:40:00.282Z,11.38
2023-04-17T10:43:03.709Z,12.77
2023-04-17T10:46:09.719Z,16.00
2023-04-17T10:49:14.209Z,13.90
2023-04-17T10:52:36.676Z,16.27
2023-04-17T10:55:49.025Z,14.90
2023-04-17T10:58:58.675Z,16.00
2023-04-17T11:02:01.408Z,14.45
2023-04-17T11:05:07.446Z,13.75
2023-04-17T11:08:11.728Z,11.55
2023-04-17T11:11:18.476Z,15.25
2023-04-17T11:17:25.938Z,13.77
2023-04-17T11:20:30.122Z,13.00
2023-04-17T11:23:34.150Z,12.90
2023-04-17T11:26:44.853Z,12.30
2023-04-17T11:29:47.808Z,13.88
2023-04-17T11:32:50.049Z,14.15
2023-04-17T11:35:55.186Z,12.52
2023-04-17T11:38:58.730Z,13.20
2023-04-17T11:42:01.356Z,12.93
2023-04-17T11:45:05.777Z,10.82
2023-04-17T11:48:10.020Z,11.23
2023-04-17T11:51:11.834Z,12.73
2023-04-17T11:54:24.959Z,13.38
2023-04-17T11:57:27.213Z,12.82
2023-04-17T12:00:29.719Z,16.55
2023-04-17T12:03:33.597Z,10.90
2023-04-17T12:06:37.678Z,12.25
2023-04-17T12:09:43.300Z,11.68
2023-04-17T12:12:45.079Z,12.95
2023-04-17T12:15:47.314Z,12.07
2023-04-17T12:18:49.308Z,13.07
2023-04-17T12:21:51.702Z,11.93
2023-04-17T12:24:55.095Z,11.90
2023-04-17T12:27:57.223Z,9.48
2023-04-17T12:30:59.025Z,8.80
2023-04-17T12:34:01.250Z,14.75
2023-04-17T12:37:06.598Z,13.80
2023-04-17T12:40:11.059Z,11.88
2023-04-17T12:43:13.776Z,12.52
2023-04-17T12:46:15.798Z,14.27
2023-04-17T12:49:18.358Z,15.02
2023-04-17T12:52:20.164Z,11.95
2023-04-17T12:55:24.195Z,14.65
2023-04-17T12:58:26.076Z,24.08
2023-04-17T13:01:27.865Z,12.40
2023-04-17T13:04:30.499Z,11.70
2023-04-17T13:07:32.804Z,12.00
2023-04-17T13:10:36.077Z,10.27
2023-04-17T13:13:40.372Z,9.65
2023-04-17T13:16:42.337Z,9.30
2023-04-17T13:19:44.452Z,10.80
2023-04-17T13:22:47.039Z,10.93
2023-04-17T13:25:50.364Z,10.13
2023-04-17T13:28:53.341Z,9.88
2023-04-17T13:31:55.473Z,9.82
2023-04-17T13:34:58.810Z,10.73
2023-04-17T13:38:01.824Z,9.95
2023-04-17T13:41:04.951Z,9.55
2023-04-17T13:44:11.204Z,9.77
2023-04-17T13:47:13.877Z,11.13
2023-04-17T13:50:15.640Z,11.50
2023-04-17T13:53:20.417Z,9.52
2023-04-17T13:56:23.704Z,11.00
2023-04-17T13:59:26.064Z,9.93
2023-04-17T14:02:29.055Z,8.50
2023-04-17T14:05:31.564Z,9.52
2023-04-17T14:08:34.586Z,9.05
2023-04-17T14:11:38.775Z,8.77
2023-04-17T14:14:40.534Z,10.10
2023-04-17T14:17:43.987Z,8.77
2023-04-17T14:20:46.025Z,11.23
2023-04-17T14:23:48.443Z,7.65
2023-04-17T14:26:52.359Z,11.02
2023-04-17T14:29:54.678Z,8.50
2023-04-17T14:32:57.216Z,10.48
2023-04-17T14:35:59.315Z,7.70
2023-04-17T14:39:01.264Z,9.13
2023-04-17T14:42:04.742Z,10.23
2023-04-17T14:45:08.017Z,10.32
2023-04-17T14:48:10.420Z,8.73
2023-04-17T14:51:12.436Z,8.25
2023-04-17T14:54:15.630Z,7.30
2023-04-17T14:57:19.137Z,9.65
2023-04-17T15:00:22.550Z,8.00
2023-04-17T15:03:24.479Z,8.57
2023-04-17T15:06:26.432Z,7.68
2023-04-17T15:09:28.282Z,9.15
2023-04-17T15:12:31.483Z,8.02
2023-04-17T15:15:35.074Z,7.57
2023-04-17T15:18:37.218Z,8.00
2023-04-17T15:21:39.797Z,6.50
2023-04-17T15:24:41.620Z,9.00
2023-04-17T15:27:47.645Z,8.35
2023-04-17T15:30:49.419Z,8.98
2023-04-17T15:33:51.226Z,8.65
2023-04-17T15:36:53.172Z,9.45
2023-04-17T15:39:54.971Z,8.57
2023-04-17T15:42:59.179Z,9.07
2023-04-17T15:46:03.710Z,10.70
2023-04-17T15:49:09.251Z,9.38
2023-04-17T15:52:11.449Z,9.25
2023-04-17T15:55:14.469Z,10.95
2023-04-17T15:58:20.624Z,9.98
2023-04-17T16:01:25.309Z,8.70
2023-04-17T16:04:30.017Z,9.45
2023-04-17T16:07:32.675Z,9.45
2023-04-17T16:10:35.783Z,10.45
2023-04-17T16:13:39.361Z,9.13
2023-04-17T16:16:41.178Z,6.88
2023-04-17T16:19:44.013Z,8.27
2023-04-17T16:22:46.150Z,7.68
2023-04-17T16:25:48.463Z,7.18
2023-04-17T16:28:51.572Z,7.55
2023-04-17T16:31:54.184Z,7.50
2023-04-17T16:34:56.611Z,6.70
2023-04-17T16:37:58.709Z,6.97
2023-04-17T16:41:00.591Z,6.28
2023-04-17T16:44:04.261Z,9.05
2023-04-17T16:47:13.391Z,7.13
2023-04-17T16:50:16.230Z,8.65
2023-04-17T16:53:18.310Z,7.93
2023-04-17T16:56:21.138Z,7.85
2023-04-17T16:59:24.610Z,6.82
2023-04-17T17:02:26.929Z,7.20
2023-04-17T17:05:28.770Z,7.72
2023-04-17T17:08:30.595Z,10.10
2023-04-17T17:11:32.926Z,6.90
2023-04-17T17:14:38.857Z,7.05
2023-04-17T17:17:40.667Z,7.25
2023-04-17T17:20:43.253Z,9.98
2023-04-17T17:23:46.638Z,9.82
2023-04-17T17:26:48.569Z,9.10
2023-04-17T17:29:57.429Z,7.95
2023-04-17T17:33:00.951Z,8.40
2023-04-17T17:36:04.696Z,10.93
2023-04-17T17:39:07.168Z,9.65
2023-04-17T17:42:09.485Z,12.25
2023-04-17T17:45:15.987Z,10.30
2023-04-17T17:48:18.190Z,9.07
2023-04-17T17:51:20.984Z,10.27
2023-04-17T17:54:23.048Z,10.38
2023-04-17T17:57:35.698Z,10.45
2023-04-17T18:00:45.459Z,10.57
2023-04-17T18:03:51.310Z,8.57
2023-04-17T18:06:55.949Z,9.27
2023-04-17T18:09:58.866Z,9.20
2023-04-17T18:13:01.036Z,7.40
2023-04-17T18:16:06.304Z,8.68
2023-04-17T18:19:09.115Z,6.78
2023-04-17T18:22:17.873Z,7.43
2023-04-17T18:25:20.834Z,9.38
2023-04-17T18:28:23.382Z,7.53
2023-04-17T18:31:30.642Z,6.68
2023-04-17T18:34:34.770Z,5.43
2023-04-17T18:37:37.512Z,5.85
2023-04-17T18:40:40.795Z,6.22
2023-04-17T18:43:42.949Z,6.38
2023-04-17T18:46:47.678Z,5.82
2023-04-17T18:49:52.423Z,7.68
2023-04-17T18:52:56.812Z,6.70
2023-04-17T18:55:59.356Z,6.80
2023-04-17T18:59:02.102Z,6.50
2023-04-17T19:02:05.884Z,6.10
2023-04-17T19:05:13.641Z,6.55
2023-04-17T19:08:16.326Z,10.10
2023-04-17T19:11:21.708Z,6.97
2023-04-17T19:14:24.105Z,7.20
2023-04-17T19:17:28.588Z,6.40
2023-04-17T19:20:31.702Z,5.70
2023-04-17T19:23:35.159Z,6.25
2023-04-17T19:26:40.036Z,6.57
2023-04-17T19:29:43.432Z,7.65
2023-04-17T19:32:48.775Z,6.32
2023-04-17T19:35:51.754Z,7.35
2023-04-17T19:38:54.185Z,7.78
2023-04-17T19:41:59.828Z,5.45
2023-04-17T19:45:02.606Z,6.47
2023-04-17T19:48:08.480Z,5.90
2023-04-17T19:51:11.971Z,4.72
2023-04-17T19:54:14.966Z,7.93
2023-04-17T19:57:18.471Z,15.18
2023-04-17T20:00:21.520Z,11.38
2023-04-17T20:03:33.735Z,7.72
2023-04-17T20:06:37.025Z,7.40
2023-04-17T20:09:40.246Z,6.18
2023-04-17T20:12:43.447Z,5.43
2023-04-17T20:15:46.377Z,10.70
2023-04-17T20:18:50.323Z,14.90
2023-04-17T20:21:52.462Z,14.18
2023-04-17T20:24:55.376Z,11.80
2023-04-17T20:27:58.619Z,12.30
2023-04-17T20:31:01.437Z,9.07
2023-04-17T20:34:04.957Z,6.43
2023-04-17T20:37:07.000Z,8.02
2023-04-17T20:40:09.917Z,7.03
2023-04-17T20:43:12.251Z,8.13
2023-04-17T20:46:14.107Z,5.15
2023-04-17T20:49:17.301Z,6.53
2023-04-17T20:52:19.600Z,6.95
2023-04-17T20:55:23.384Z,6.93
2023-04-17T20:58:25.821Z,6.55
2023-04-17T21:01:28.177Z,5.63
2023-04-17T21:04:31.338Z,9.95
2023-04-17T21:07:35.111Z,8.57
2023-04-17T21:10:37.054Z,5.50
2023-04-17T21:13:39.010Z,6.20
2023-04-17T21:16:42.357Z,25.30
2023-04-17T21:19:45.642Z,20.02
2023-04-17T21:22:48.543Z,23.08
2023-04-17T21:25:52.217Z,29.00
2023-04-17T21:28:54.926Z,26.88
2023-04-17T21:31:57.745Z,11.23
2023-04-17T21:35:02.630Z,7.07
2023-04-17T21:38:04.656Z,5.43
2023-04-17T21:41:06.713Z,6.80
2023-04-17T21:44:08.923Z,7.05
2023-04-17T21:47:10.674Z,6.47
2023-04-17T21:50:13.781Z,6.13
2023-04-17T21:53:16.453Z,6.45
2023-04-17T21:56:18.956Z,6.75
2023-04-17T21:59:20.698Z,6.57
2023-04-17T22:02:22.620Z,8.13
2023-04-17T22:05:28.279Z,7.43
2023-04-17T22:08:30.081Z,11.55
2023-04-17T22:11:33.053Z,9.40
2023-04-17T22:14:35.049Z,8.52
2023-04-17T22:17:38.925Z,7.00
2023-04-17T22:20:42.244Z,7.50
2023-04-17T22:23:44.089Z,6.85
2023-04-17T22:26:47.820Z,7.93
2023-04-17T22:29:49.828Z,7.13
2023-04-17T22:32:51.875Z,8.60
2023-04-17T22:35:55.007Z,7.78
2023-04-17T22:38:56.868Z,9.95
2023-04-17T22:41:58.642Z,7.80
2023-04-17T22:45:00.635Z,7.90
2023-04-17T22:48:02.495Z,11.75
2023-04-17T22:51:06.086Z,8.13
2023-04-17T22:54:19.031Z,8.15
2023-04-17T22:57:24.053Z,10.73
2023-04-17T23:00:25.932Z,8.68
2023-04-17T23:03:27.952Z,10.93
2023-04-17T23:06:31.122Z,9.18
2023-04-17T23:09:32.934Z,9.52
2023-04-17T23:12:35.153Z,9.43
2023-04-17T23:15:37.025Z,9.07
2023-04-17T23:18:38.785Z,9.60
2023-04-17T23:21:41.903Z,8.95
2023-04-17T23:24:44.713Z,9.15
2023-04-17T23:27:46.644Z,9.48
2023-04-17T23:30:48.696Z,11.43
2023-04-17T23:33:50.617Z,9.48
2023-04-17T23:36:55.008Z,12.38
2023-04-17T23:39:56.735Z,11.80
2023-04-17T23:42:59.076Z,12.00
2023-04-17T23:46:00.859Z,10.70
2023-04-17T23:49:02.831Z,11.45
2023-04-17T23:52:06.260Z,11.15
2023-04-17T23:55:08.954Z,14.18
2023-04-17T23:58:11.485Z,9.38
